createdAt,value
2022-08-16T00:01:18.080Z,63.17
2022-08-16T00:03:45.662Z,64.34
2022-08-16T00:06:12.925Z,62.83
2022-08-16T00:08:42.487Z,63.45
2022-08-16T00:11:15.586Z,63.35
2022-08-16T00:13:53.658Z,64.02
2022-08-16T00:17:00.589Z,63.94
2022-08-16T00:19:14.017Z,64.36
2022-08-16T00:21:42.788Z,64.19
2022-08-16T00:24:12.088Z,64.53
2022-08-16T00:26:44.947Z,65.10
2022-08-16T00:29:15.612Z,65.17
2022-08-16T00:32:00.330Z,64.89
2022-08-16T00:34:44.220Z,65.25
2022-08-16T00:37:18.722Z,65.63
2022-08-16T00:39:58.404Z,66.21
2022-08-16T00:42:31.834Z,65.90
2022-08-16T00:45:28.752Z,66.83
2022-08-16T00:47:56.155Z,67.01
2022-08-16T00:50:35.850Z,66.42
2022-08-16T00:53:06.578Z,66.66
2022-08-16T00:55:37.607Z,66.69
2022-08-16T00:58:05.550Z,67.11
2022-08-16T01:00:40.601Z,68.18
2022-08-16T01:03:11.781Z,67.68
2022-08-16T01:05:41.270Z,68.04
2022-08-16T01:08:35.931Z,68.31
2022-08-16T01:10:57.012Z,69.31
2022-08-16T01:13:29.477Z,68.75
2022-08-16T01:16:10.360Z,69.11
2022-08-16T01:18:57.595Z,68.88
2022-08-16T01:21:52.167Z,68.35
2022-08-16T01:24:53.242Z,68.28
2022-08-16T01:27:20.014Z,68.06
2022-08-16T01:29:59.993Z,68.84
2022-08-16T01:32:34.263Z,70.55
2022-08-16T01:35:06.902Z,68.78
2022-08-16T01:37:43.210Z,68.59
2022-08-16T01:40:11.875Z,69.14
2022-08-16T01:42:42.332Z,69.20
2022-08-16T01:45:09.954Z,69.12
2022-08-16T01:47:37.922Z,68.88
2022-08-16T01:50:41.939Z,67.95
2022-08-16T01:53:04.334Z,68.05
2022-08-16T01:55:35.595Z,69.16
2022-08-16T01:58:04.325Z,69.59
2022-08-16T02:00:31.582Z,69.37
2022-08-16T02:02:59.451Z,70.43
2022-08-16T02:05:30.349Z,70.52
2022-08-16T02:07:58.438Z,70.37
2022-08-16T02:10:26.611Z,70.65
2022-08-16T02:12:59.873Z,70.95
2022-08-16T02:15:29.314Z,70.83
2022-08-16T02:17:58.588Z,70.88
2022-08-16T02:20:27.908Z,71.91
2022-08-16T02:22:57.079Z,73.05
2022-08-16T02:25:24.323Z,72.17
2022-08-16T02:27:51.801Z,72.80
2022-08-16T02:30:35.817Z,72.61
2022-08-16T02:33:06.204Z,72.81
2022-08-16T02:35:34.039Z,71.70
2022-08-16T02:38:08.406Z,72.12
2022-08-16T02:40:36.742Z,72.56
2022-08-16T02:43:05.386Z,71.62
2022-08-16T02:45:33.001Z,71.29
2022-08-16T02:48:29.247Z,72.23
2022-08-16T02:50:55.402Z,72.33
2022-08-16T02:53:36.491Z,72.41
2022-08-16T02:56:05.549Z,72.23
2022-08-16T02:58:37.308Z,73.44
2022-08-16T03:01:07.154Z,73.48
2022-08-16T03:04:29.896Z,71.69
2022-08-16T03:06:42.022Z,71.67
2022-08-16T03:09:15.010Z,72.83
2022-08-16T03:11:46.426Z,72.79
2022-08-16T03:14:13.627Z,72.74
2022-08-16T03:16:59.964Z,73.13
2022-08-16T03:19:48.233Z,73.84
2022-08-16T03:22:28.990Z,73.08
2022-08-16T03:25:01.793Z,73.00
2022-08-16T03:27:32.379Z,72.89
2022-08-16T03:30:15.974Z,73.73
2022-08-16T03:32:47.367Z,73.50
2022-08-16T03:35:17.650Z,73.05
2022-08-16T03:38:01.961Z,72.87
2022-08-16T03:40:33.845Z,72.62
2022-08-16T03:43:20.259Z,73.23
2022-08-16T03:45:49.493Z,74.55
2022-08-16T03:48:20.825Z,73.91
2022-08-16T03:51:05.678Z,73.69
2022-08-16T03:53:37.382Z,73.69
2022-08-16T03:56:07.687Z,72.89
2022-08-16T03:58:48.620Z,71.97
2022-08-16T04:01:19.101Z,71.07
2022-08-16T04:03:47.030Z,70.80
2022-08-16T04:06:16.970Z,70.57
2022-08-16T04:08:45.202Z,70.99
2022-08-16T04:11:16.369Z,70.72
2022-08-16T04:14:00.095Z,70.42
2022-08-16T04:16:34.453Z,69.72
2022-08-16T04:19:04.811Z,69.17
2022-08-16T04:21:34.719Z,68.31
2022-08-16T04:24:03.002Z,67.42
2022-08-16T04:26:32.202Z,67.98
2022-08-16T04:29:17.220Z,66.47
2022-08-16T04:31:56.890Z,66.09
2022-08-16T04:34:32.635Z,63.92
2022-08-16T04:37:01.437Z,63.09
2022-08-16T04:39:45.880Z,62.49
2022-08-16T04:42:16.083Z,64.22
2022-08-16T04:44:53.410Z,62.82
2022-08-16T04:47:35.476Z,60.46
2022-08-16T04:50:06.735Z,58.81
2022-08-16T04:52:36.129Z,59.66
2022-08-16T04:55:06.366Z,58.09
2022-08-16T04:57:35.633Z,57.65
2022-08-16T05:00:30.978Z,58.80
2022-08-16T05:02:56.391Z,56.70
2022-08-16T05:05:30.679Z,56.69
2022-08-16T05:08:28.187Z,57.01
2022-08-16T05:10:52.635Z,56.72
2022-08-16T05:13:41.156Z,56.70
2022-08-16T05:16:22.922Z,57.41
2022-08-16T05:18:53.074Z,54.31
2022-08-16T05:21:21.611Z,54.67
2022-08-16T05:23:58.645Z,56.02
2022-08-16T05:26:31.245Z,58.23
2022-08-16T05:29:00.042Z,57.92
2022-08-16T05:31:31.476Z,58.37
2022-08-16T05:34:21.381Z,58.50
2022-08-16T05:36:51.517Z,57.97
2022-08-16T05:39:20.561Z,56.97
2022-08-16T05:41:51.769Z,57.49
2022-08-16T05:44:24.214Z,57.02
2022-08-16T05:46:55.064Z,56.22
2022-08-16T05:49:39.889Z,47.19
2022-08-16T05:52:11.730Z,44.45
2022-08-16T05:54:46.831Z,43.69
2022-08-16T05:57:18.279Z,39.15
2022-08-16T05:59:47.327Z,33.75
2022-08-16T06:02:18.889Z,30.63
2022-08-16T06:04:46.736Z,29.28
2022-08-16T06:07:24.837Z,26.26
2022-08-16T06:09:59.667Z,26.29
2022-08-16T06:12:31.143Z,26.42
2022-08-16T06:15:04.439Z,27.89
2022-08-16T06:17:43.245Z,29.55
2022-08-16T06:20:23.111Z,30.55
2022-08-16T06:22:58.624Z,32.34
2022-08-16T06:25:36.108Z,35.01
2022-08-16T06:28:08.573Z,37.49
2022-08-16T06:30:43.290Z,39.19
2022-08-16T06:33:13.234Z,40.79
2022-08-16T06:35:47.515Z,41.66
2022-08-16T06:38:31.905Z,41.89
2022-08-16T06:41:05.611Z,40.71
2022-08-16T06:43:33.639Z,40.56
2022-08-16T06:46:03.550Z,39.06
2022-08-16T06:48:33.910Z,38.47
2022-08-16T06:51:04.230Z,31.92
2022-08-16T06:53:35.477Z,26.92
2022-08-16T06:56:06.650Z,24.25
2022-08-16T06:58:43.315Z,22.39
2022-08-16T07:01:15.785Z,21.28
2022-08-16T07:03:55.687Z,20.81
2022-08-16T07:06:26.473Z,22.73
2022-08-16T07:08:55.869Z,23.52
2022-08-16T07:11:47.166Z,24.78
2022-08-16T07:14:24.610Z,26.95
2022-08-16T07:16:53.297Z,27.95
2022-08-16T07:19:20.505Z,29.70
2022-08-16T07:21:59.249Z,32.17
2022-08-16T07:24:29.725Z,34.82
2022-08-16T07:26:59.199Z,35.58
2022-08-16T07:29:31.827Z,36.52
2022-08-16T07:32:00.527Z,36.45
2022-08-16T07:34:35.040Z,36.80
2022-08-16T07:37:09.638Z,37.91
2022-08-16T07:39:43.104Z,38.79
2022-08-16T07:42:20.072Z,38.52
2022-08-16T07:44:55.461Z,38.48
2022-08-16T07:47:31.624Z,39.65
2022-08-16T07:50:05.327Z,39.71
2022-08-16T07:52:32.950Z,39.30
2022-08-16T07:55:00.690Z,39.46
2022-08-16T07:57:35.008Z,39.30
2022-08-16T08:00:07.341Z,39.98
2022-08-16T08:02:52.092Z,39.55
2022-08-16T08:05:35.352Z,39.30
2022-08-16T08:08:11.387Z,38.72
2022-08-16T08:10:39.504Z,38.56
2022-08-16T08:13:07.745Z,37.05
2022-08-16T08:15:37.051Z,36.91
2022-08-16T08:18:30.582Z,35.20
2022-08-16T08:20:59.170Z,34.74
2022-08-16T08:23:28.289Z,34.03
2022-08-16T08:25:55.999Z,30.97
2022-08-16T08:28:23.470Z,29.55
2022-08-16T08:31:01.173Z,27.96
2022-08-16T08:33:31.654Z,30.21
2022-08-16T08:36:05.203Z,28.21
2022-08-16T08:38:43.768Z,26.50
2022-08-16T08:41:18.268Z,30.24
2022-08-16T08:43:50.374Z,30.74
2022-08-16T08:46:21.637Z,33.00
2022-08-16T08:48:59.519Z,32.99
2022-08-16T08:51:32.109Z,30.37
2022-08-16T08:54:09.442Z,29.76
2022-08-16T08:56:45.428Z,28.98
2022-08-16T08:59:19.768Z,30.04
2022-08-16T09:01:57.280Z,29.63
2022-08-16T09:04:27.324Z,28.44
2022-08-16T09:06:55.107Z,29.70
2022-08-16T09:09:23.123Z,32.89
2022-08-16T09:12:00.272Z,32.61
2022-08-16T09:14:33.064Z,31.39
2022-08-16T09:17:12.045Z,31.94
2022-08-16T09:19:49.330Z,30.60
2022-08-16T09:22:25.304Z,30.25
2022-08-16T09:24:58.177Z,28.70
2022-08-16T09:27:56.555Z,28.23
2022-08-16T09:30:34.790Z,27.70
2022-08-16T09:33:12.814Z,27.01
2022-08-16T09:35:42.576Z,26.50
2022-08-16T09:38:31.162Z,25.44
2022-08-16T09:40:59.061Z,27.69
2022-08-16T09:43:59.942Z,24.85
2022-08-16T09:46:44.820Z,24.74
2022-08-16T09:49:03.557Z,23.91
2022-08-16T09:51:36.855Z,22.38
2022-08-16T09:54:06.045Z,24.03
2022-08-16T09:56:38.575Z,23.73
2022-08-16T09:59:08.563Z,22.55
2022-08-16T10:01:36.798Z,23.31
2022-08-16T10:04:28.980Z,24.78
2022-08-16T10:06:54.575Z,26.71
2022-08-16T10:09:25.553Z,24.98
2022-08-16T10:12:31.025Z,27.51
2022-08-16T10:15:01.317Z,27.24
2022-08-16T10:20:04.504Z,25.37
2022-08-16T10:22:32.016Z,26.56
2022-08-16T10:25:00.309Z,27.29
2022-08-16T10:27:45.593Z,27.10
2022-08-16T10:30:24.988Z,27.15
2022-08-16T10:32:54.054Z,26.79
2022-08-16T10:35:21.026Z,25.93
2022-08-16T10:37:52.453Z,24.82
2022-08-16T10:40:29.947Z,25.02
2022-08-16T10:43:00.159Z,26.62
2022-08-16T10:45:36.725Z,25.94
2022-08-16T10:48:23.982Z,25.72
2022-08-16T10:50:56.284Z,25.79
2022-08-16T10:53:32.736Z,24.23
2022-08-16T10:56:02.644Z,24.99
2022-08-16T10:58:34.383Z,25.77
2022-08-16T11:03:54.551Z,25.14
2022-08-16T11:06:27.803Z,25.82
2022-08-16T11:14:30.809Z,25.56
2022-08-16T11:17:09.203Z,24.50
2022-08-16T11:22:46.985Z,23.84
2022-08-16T11:28:08.462Z,24.14
2022-08-16T11:30:39.089Z,23.44
2022-08-16T11:33:07.793Z,23.59
2022-08-16T11:38:51.413Z,24.43
2022-08-16T11:41:10.757Z,23.59
2022-08-16T11:43:40.445Z,22.60
2022-08-16T11:46:43.591Z,22.12
2022-08-16T11:49:07.613Z,21.83
2022-08-16T11:51:36.966Z,22.58
2022-08-16T11:54:05.176Z,22.41
2022-08-16T11:56:51.775Z,26.64
2022-08-16T11:59:28.502Z,29.88
2022-08-16T12:02:00.015Z,28.57
2022-08-16T12:04:31.708Z,29.58
2022-08-16T12:06:58.807Z,29.19
2022-08-16T12:09:29.749Z,30.75
2022-08-16T12:11:58.416Z,29.12
2022-08-16T12:14:35.498Z,29.60
2022-08-16T12:17:06.211Z,29.42
2022-08-16T12:19:36.026Z,27.84
2022-08-16T12:22:05.458Z,27.83
2022-08-16T12:24:32.957Z,27.82
2022-08-16T12:27:00.192Z,28.40
2022-08-16T12:29:29.411Z,28.48
2022-08-16T12:32:26.738Z,27.44
2022-08-16T12:34:50.738Z,26.03
2022-08-16T12:37:27.551Z,26.71
2022-08-16T12:39:57.936Z,26.47
2022-08-16T12:42:34.295Z,24.57
2022-08-16T12:45:08.929Z,24.53
2022-08-16T12:48:09.897Z,24.39
2022-08-16T12:50:41.885Z,24.75
2022-08-16T12:53:09.560Z,26.02
2022-08-16T12:55:41.975Z,26.91
2022-08-16T12:58:14.012Z,28.73
2022-08-16T13:00:59.922Z,28.95
2022-08-16T13:03:28.931Z,30.11
2022-08-16T13:06:00.184Z,30.50
2022-08-16T13:08:30.695Z,30.20
2022-08-16T13:10:58.780Z,30.77
2022-08-16T13:13:26.527Z,30.41
2022-08-16T13:16:03.592Z,29.99
2022-08-16T13:18:35.612Z,30.72
2022-08-16T13:21:05.217Z,30.31
2022-08-16T13:23:33.277Z,31.29
2022-08-16T13:26:02.827Z,30.65
2022-08-16T13:28:29.817Z,30.41
2022-08-16T13:30:58.080Z,30.86
2022-08-16T13:33:30.457Z,29.61
2022-08-16T13:35:59.589Z,29.56
2022-08-16T13:38:31.537Z,29.98
2022-08-16T13:41:10.617Z,29.75
2022-08-16T13:43:38.713Z,29.07
2022-08-16T13:46:07.014Z,28.65
2022-08-16T13:48:43.101Z,27.84
2022-08-16T13:51:16.972Z,27.68
2022-08-16T13:53:54.581Z,28.08
2022-08-16T13:56:26.497Z,28.23
2022-08-16T13:59:04.666Z,27.78
2022-08-16T14:01:36.556Z,27.38
2022-08-16T14:04:05.456Z,26.82
2022-08-16T14:06:32.420Z,26.46
2022-08-16T14:09:06.460Z,26.42
2022-08-16T14:11:35.071Z,25.70
2022-08-16T14:14:05.699Z,25.85
2022-08-16T14:16:34.821Z,25.47
2022-08-16T14:19:02.622Z,25.31
2022-08-16T14:21:35.012Z,24.89
2022-08-16T14:24:07.798Z,24.72
2022-08-16T14:26:43.984Z,24.84
2022-08-16T14:29:11.451Z,25.39
2022-08-16T14:31:39.674Z,26.36
2022-08-16T14:34:07.875Z,25.85
2022-08-16T14:36:42.142Z,25.09
2022-08-16T14:39:09.341Z,24.09
2022-08-16T14:41:39.510Z,24.42
2022-08-16T14:44:08.265Z,25.66
2022-08-16T14:46:36.329Z,25.42
2022-08-16T14:49:04.371Z,24.73
2022-08-16T14:51:37.305Z,25.34
2022-08-16T14:54:05.608Z,24.41
2022-08-16T14:56:42.847Z,24.82
2022-08-16T14:59:13.717Z,23.77
2022-08-16T15:01:57.477Z,23.76
2022-08-16T15:04:39.759Z,23.85
2022-08-16T15:07:16.202Z,23.93
2022-08-16T15:10:00.797Z,23.45
2022-08-16T15:12:31.178Z,23.41
2022-08-16T15:15:01.240Z,24.10
2022-08-16T15:17:33.956Z,24.57
2022-08-16T15:20:08.997Z,24.12
2022-08-16T15:22:43.756Z,24.61
2022-08-16T15:25:17.817Z,24.98
2022-08-16T15:27:45.825Z,25.40
2022-08-16T15:30:58.016Z,25.61
2022-08-16T15:33:19.872Z,25.79
2022-08-16T15:35:49.988Z,25.84
2022-08-16T15:38:55.267Z,26.40
2022-08-16T15:41:05.104Z,26.48
2022-08-16T15:43:39.560Z,26.69
2022-08-16T15:46:54.214Z,27.80
2022-08-16T15:49:13.446Z,27.22
2022-08-16T15:51:41.273Z,26.15
2022-08-16T15:54:21.007Z,27.22
2022-08-16T15:56:56.742Z,27.32
2022-08-16T15:59:27.036Z,27.57
2022-08-16T16:01:56.554Z,28.75
2022-08-16T16:04:28.494Z,28.03
2022-08-16T16:06:56.659Z,28.31
2022-08-16T16:09:36.753Z,28.96
2022-08-16T16:12:41.513Z,29.84
2022-08-16T16:14:57.167Z,30.56
2022-08-16T16:17:25.155Z,30.03
2022-08-16T16:19:59.813Z,29.89
2022-08-16T16:22:30.027Z,29.27
2022-08-16T16:24:57.304Z,29.62
2022-08-16T16:27:28.209Z,30.02
2022-08-16T16:30:02.040Z,30.01
2022-08-16T16:32:34.823Z,30.29
2022-08-16T16:35:06.112Z,30.10
2022-08-16T16:37:33.519Z,30.55
2022-08-16T16:40:04.122Z,29.79
2022-08-16T16:42:35.470Z,29.55
2022-08-16T16:45:11.576Z,29.41
2022-08-16T16:47:41.724Z,29.39
2022-08-16T16:50:12.984Z,29.81
2022-08-16T16:52:44.743Z,29.61
2022-08-16T16:55:14.781Z,29.27
2022-08-16T16:58:03.186Z,29.48
2022-08-16T17:00:38.266Z,29.89
2022-08-16T17:03:06.194Z,31.01
2022-08-16T17:06:00.195Z,31.96
2022-08-16T17:08:30.790Z,32.47
2022-08-16T17:10:58.112Z,32.26
2022-08-16T17:13:27.322Z,32.62
2022-08-16T17:15:55.000Z,34.33
2022-08-16T17:19:14.478Z,37.81
2022-08-16T17:21:09.974Z,38.01
2022-08-16T17:26:30.143Z,37.40
2022-08-16T17:29:02.422Z,37.49
2022-08-16T17:31:41.062Z,37.46
2022-08-16T17:34:29.026Z,37.36
2022-08-16T17:37:00.658Z,37.12
2022-08-16T17:39:28.412Z,37.48
2022-08-16T17:39:58.220Z,37.05
2022-08-16T17:42:26.696Z,36.20
2022-08-16T17:44:56.044Z,36.25
2022-08-16T17:47:23.011Z,37.02
2022-08-16T17:49:49.946Z,37.14
2022-08-16T17:52:17.462Z,37.17
2022-08-16T17:54:45.016Z,37.61
2022-08-16T17:57:12.434Z,39.96
2022-08-16T17:59:41.202Z,39.85
2022-08-16T18:02:41.095Z,39.09
2022-08-16T18:04:59.640Z,38.76
2022-08-16T18:07:29.738Z,39.09
2022-08-16T18:09:59.779Z,39.53
2022-08-16T18:12:50.926Z,38.05
2022-08-16T18:15:18.215Z,38.47
2022-08-16T18:17:45.142Z,38.14
2022-08-16T18:20:32.654Z,37.74
2022-08-16T18:23:06.989Z,37.93
2022-08-16T18:25:35.460Z,37.81
2022-08-16T18:28:03.551Z,38.34
2022-08-16T18:30:30.496Z,38.05
2022-08-16T18:32:57.453Z,38.26
2022-08-16T18:35:26.304Z,38.65
2022-08-16T18:37:53.962Z,39.04
2022-08-16T18:40:20.864Z,39.88
2022-08-16T18:43:04.550Z,39.80
2022-08-16T18:45:35.677Z,40.16
2022-08-16T18:48:05.081Z,40.59
2022-08-16T18:51:04.314Z,40.81
2022-08-16T18:53:21.642Z,41.13
2022-08-16T18:55:49.193Z,41.14
2022-08-16T18:58:16.110Z,41.70
2022-08-16T19:00:56.135Z,41.28
2022-08-16T19:03:29.620Z,41.51
2022-08-16T19:06:03.388Z,41.93
2022-08-16T19:08:30.915Z,41.91
2022-08-16T19:10:58.152Z,41.94
2022-08-16T19:13:27.852Z,42.64
2022-08-16T19:15:55.352Z,43.04
2022-08-16T19:18:23.016Z,42.90
2022-08-16T19:20:50.751Z,42.62
2022-08-16T19:23:20.943Z,42.77
2022-08-16T19:25:52.788Z,42.97
2022-08-16T19:28:49.895Z,43.03
2022-08-16T19:31:32.319Z,43.46
2022-08-16T19:33:59.772Z,43.34
2022-08-16T19:36:31.934Z,43.75
2022-08-16T19:39:05.011Z,44.24
2022-08-16T19:41:38.644Z,45.00
2022-08-16T19:44:06.804Z,46.72
2022-08-16T19:46:34.521Z,46.10
2022-08-16T19:49:01.485Z,46.32
2022-08-16T19:51:28.428Z,47.69
2022-08-16T19:53:55.678Z,47.61
2022-08-16T19:56:25.593Z,48.40
2022-08-16T19:59:17.386Z,49.21
2022-08-16T20:01:42.634Z,49.28
2022-08-16T20:04:14.452Z,49.30
2022-08-16T20:06:42.131Z,49.65
2022-08-16T20:09:10.399Z,50.00
2022-08-16T20:11:45.578Z,50.70
2022-08-16T20:14:24.491Z,51.38
2022-08-16T20:16:58.949Z,51.82
2022-08-16T20:19:28.294Z,51.73
2022-08-16T20:21:56.690Z,52.54
2022-08-16T20:24:34.075Z,53.06
2022-08-16T20:27:04.829Z,52.83
2022-08-16T20:29:31.773Z,52.89
2022-08-16T20:31:58.697Z,53.18
2022-08-16T20:34:25.994Z,53.44
2022-08-16T20:36:52.901Z,53.52
2022-08-16T20:39:19.847Z,53.35
2022-08-16T20:41:46.999Z,53.54
2022-08-16T20:44:14.098Z,53.79
2022-08-16T20:46:41.006Z,53.63
2022-08-16T20:49:10.278Z,53.91
2022-08-16T20:51:49.537Z,54.27
2022-08-16T20:54:19.345Z,54.26
2022-08-16T20:56:46.279Z,54.49
2022-08-16T20:59:13.424Z,54.93
2022-08-16T21:01:46.662Z,55.37
2022-08-16T21:04:21.579Z,55.16
2022-08-16T21:06:53.953Z,54.93
2022-08-16T21:09:27.085Z,55.06
2022-08-16T21:11:55.561Z,55.16
2022-08-16T21:14:23.366Z,55.08
2022-08-16T21:16:50.392Z,55.16
2022-08-16T21:19:17.701Z,55.44
2022-08-16T21:21:44.653Z,55.51
2022-08-16T21:24:11.612Z,55.79
2022-08-16T21:26:39.138Z,55.83
2022-08-16T21:29:06.593Z,56.22
2022-08-16T21:31:34.756Z,56.56
2022-08-16T21:34:02.636Z,57.19
2022-08-16T21:36:34.964Z,57.26
2022-08-16T21:39:05.706Z,57.16
2022-08-16T21:41:33.904Z,57.18
2022-08-16T21:44:00.794Z,56.30
2022-08-16T21:46:27.995Z,56.42
2022-08-16T21:48:54.908Z,56.64
2022-08-16T21:51:22.675Z,55.97
2022-08-16T21:53:49.880Z,55.82
2022-08-16T21:56:17.609Z,56.21
2022-08-16T21:58:46.231Z,56.24
2022-08-16T22:01:13.467Z,56.49
2022-08-16T22:03:40.675Z,56.44
2022-08-16T22:06:13.277Z,55.97
2022-08-16T22:08:48.719Z,56.02
2022-08-16T22:11:22.175Z,56.60
2022-08-16T22:13:57.289Z,56.10
2022-08-16T22:16:31.816Z,55.75
2022-08-16T22:18:59.767Z,55.76
2022-08-16T22:21:27.055Z,55.72
2022-08-16T22:23:56.685Z,55.38
2022-08-16T22:26:31.796Z,55.95
2022-08-16T22:29:00.736Z,55.85
2022-08-16T22:31:28.749Z,56.08
2022-08-16T22:33:56.690Z,56.38
2022-08-16T22:36:28.382Z,56.38
2022-08-16T22:38:58.710Z,56.54
2022-08-16T22:41:27.859Z,57.02
2022-08-16T22:43:54.840Z,56.48
2022-08-16T22:46:22.055Z,56.62
2022-08-16T22:48:52.063Z,56.83
2022-08-16T22:51:20.195Z,58.96
2022-08-16T22:53:47.642Z,57.75
2022-08-16T22:56:15.665Z,58.23
2022-08-16T22:58:42.983Z,59.38
2022-08-16T23:01:11.276Z,60.15
2022-08-16T23:03:39.054Z,59.53
2022-08-16T23:06:06.144Z,60.42
2022-08-16T23:08:40.576Z,60.12
2022-08-16T23:11:26.750Z,60.46
2022-08-16T23:13:55.836Z,60.95
2022-08-16T23:16:32.356Z,61.29
2022-08-16T23:19:02.435Z,61.59
2022-08-16T23:21:29.384Z,61.79
2022-08-16T23:23:56.307Z,61.42
2022-08-16T23:26:46.134Z,62.37
2022-08-16T23:29:19.774Z,61.91
2022-08-16T23:31:50.897Z,62.65
2022-08-16T23:34:21.602Z,62.31
2022-08-16T23:36:48.508Z,61.89
2022-08-16T23:39:15.664Z,61.66
2022-08-16T23:41:43.830Z,62.47
2022-08-16T23:44:55.235Z,62.67
2022-08-16T23:46:57.925Z,62.75
2022-08-16T23:50:01.794Z,62.45
2022-08-16T23:52:12.106Z,62.94
2022-08-16T23:54:39.451Z,63.35
2022-08-16T23:57:06.412Z,63.82
2022-08-16T23:59:43.743Z,63.71
